createdAt,value
2023-02-26T00:16:25.281Z,52301.21
2023-02-26T00:18:58.448Z,52302.01
2023-02-26T00:21:32.495Z,52310.45
2023-02-26T00:24:06.878Z,52313.26
2023-02-26T00:26:41.374Z,52302.01
2023-02-26T00:29:15.519Z,52307.63
2023-02-26T00:31:50.048Z,52318.49
2023-02-26T00:34:23.978Z,52291.96
2023-02-26T00:37:05.072Z,52310.04
2023-02-26T00:39:45.190Z,52309.24
2023-02-26T00:42:18.831Z,52305.63
2023-02-26T00:44:52.567Z,52320.09
2023-02-26T00:47:33.222Z,52331.34
2023-02-26T00:50:15.915Z,52329.34
2023-02-26T00:52:58.903Z,52341.80
2023-02-26T00:55:31.759Z,52315.67
2023-02-26T00:58:05.633Z,52322.10
2023-02-26T01:00:39.531Z,52318.89
2023-02-26T01:03:13.007Z,52330.14
2023-02-26T01:05:47.566Z,52331.35
2023-02-26T01:08:22.371Z,52326.93
2023-02-26T01:10:56.565Z,52337.77
2023-02-26T01:13:29.874Z,52308.84
2023-02-26T01:16:05.695Z,52338.18
2023-02-26T01:18:42.681Z,52326.93
2023-02-26T01:21:17.146Z,52351.44
2023-02-26T01:23:51.906Z,52329.34
2023-02-26T01:26:26.799Z,52338.58
2023-02-26T01:29:00.628Z,52342.20
2023-02-26T01:31:40.093Z,52303.21
2023-02-26T01:34:16.218Z,52329.34
2023-02-26T01:36:51.812Z,52334.96
2023-02-26T01:39:32.200Z,52327.73
2023-02-26T01:42:08.597Z,52317.28
2023-02-26T01:44:46.230Z,52330.95
2023-02-26T01:47:22.284Z,52330.14
2023-02-26T01:49:55.653Z,52323.30
2023-02-26T01:53:10.702Z,52314.07
2023-02-26T01:55:44.326Z,52326.12
2023-02-26T01:58:17.846Z,52340.19
2023-02-26T02:00:52.529Z,52323.71
2023-02-26T02:03:25.828Z,52332.95
2023-02-26T02:06:02.237Z,52322.91
2023-02-26T02:08:36.295Z,52336.97
2023-02-26T02:11:13.078Z,52325.71
2023-02-26T02:30:07.798Z,52325.72
2023-02-26T02:32:42.774Z,52326.93
2023-02-26T02:35:21.814Z,52326.93
2023-02-26T02:37:58.180Z,52322.51
2023-02-26T02:40:39.297Z,52329.34
2023-02-26T02:43:14.743Z,52327.32
2023-02-26T02:45:49.325Z,52329.74
2023-02-26T02:48:29.011Z,52326.12
2023-02-26T02:51:03.148Z,52331.35
2023-02-26T02:53:41.162Z,52319.29
2023-02-26T02:56:17.320Z,52335.37
2023-02-26T02:58:52.852Z,52323.71
2023-02-26T03:01:26.659Z,52331.74
2023-02-26T03:04:01.536Z,52331.75
2023-02-26T03:06:37.313Z,52349.02
2023-02-26T03:09:11.635Z,52352.65
2023-02-26T03:11:48.706Z,52327.73
2023-02-26T03:14:21.446Z,52340.19
2023-02-26T03:17:06.844Z,52334.16
2023-02-26T03:19:42.723Z,52327.32
2023-02-26T03:22:16.947Z,52353.85
2023-02-26T03:25:09.330Z,52346.62
2023-02-26T03:27:45.965Z,52352.24
2023-02-26T03:30:20.719Z,52353.85
2023-02-26T03:33:00.146Z,52353.45
2023-02-26T03:35:39.743Z,52343.41
2023-02-26T03:38:16.037Z,52357.87
2023-02-26T03:40:55.148Z,52347.42
2023-02-26T03:43:31.939Z,52350.23
2023-02-26T03:46:08.392Z,52358.27
2023-02-26T03:48:41.612Z,52351.84
2023-02-26T03:51:15.746Z,52354.66
2023-02-26T03:53:53.730Z,52359.88
2023-02-26T04:17:18.663Z,52351.04
2023-02-26T04:19:52.410Z,52346.62
2023-02-26T04:22:25.408Z,52341.39
2023-02-26T04:24:58.474Z,52343.40
2023-02-26T04:27:31.157Z,52355.86
2023-02-26T04:30:03.951Z,52345.01
2023-02-26T04:32:37.894Z,52330.14
2023-02-26T04:35:12.605Z,52355.05
2023-02-26T04:37:47.441Z,52330.14
2023-02-26T04:40:20.427Z,52339.78
2023-02-26T04:42:53.591Z,52336.17
2023-02-26T04:45:30.619Z,52337.38
2023-02-26T04:48:05.674Z,52343.80
2023-02-26T04:50:38.745Z,52340.19
2023-02-26T04:53:11.893Z,52345.81
2023-02-26T04:55:45.409Z,52341.79
2023-02-26T04:58:20.014Z,52347.02
2023-02-26T05:00:54.180Z,52354.66
2023-02-26T05:03:27.136Z,52339.79
2023-02-26T05:06:00.103Z,52342.60
2023-02-26T05:08:38.394Z,52349.83
2023-02-26T05:11:12.982Z,52340.99
2023-02-26T05:13:45.754Z,52345.01
2023-02-26T05:16:20.143Z,52353.05
2023-02-26T05:18:52.885Z,52347.02
2023-02-26T05:21:26.396Z,52355.86
2023-02-26T05:23:59.685Z,52360.68
2023-02-26T05:26:32.914Z,52338.18
2023-02-26T05:29:08.275Z,52345.01
2023-02-26T05:31:43.337Z,52348.63
2023-02-26T05:34:21.430Z,52360.28
2023-02-26T05:36:54.691Z,52335.36
2023-02-26T05:39:27.489Z,52357.47
2023-02-26T05:42:01.147Z,52363.09
2023-02-26T05:44:35.512Z,52356.66
2023-02-26T05:47:08.352Z,52336.17
2023-02-26T05:49:49.844Z,52361.89
2023-02-26T05:52:22.443Z,52355.46
2023-02-26T05:54:56.376Z,52355.46
2023-02-26T05:57:30.397Z,52350.63
2023-02-26T06:00:04.549Z,52352.24
2023-02-26T06:02:46.149Z,52352.24
2023-02-26T06:05:19.065Z,52354.66
2023-02-26T06:07:51.940Z,52350.63
2023-02-26T06:10:25.230Z,52334.55
2023-02-26T06:12:59.611Z,52355.46
2023-02-26T06:15:32.492Z,52347.42
2023-02-26T06:18:05.547Z,52349.83
2023-02-26T06:20:39.284Z,52352.64
2023-02-26T06:23:12.424Z,52346.61
2023-02-26T06:25:47.267Z,52352.65
2023-02-26T06:28:24.809Z,52354.66
2023-02-26T06:30:57.618Z,52353.85
2023-02-26T06:33:30.734Z,52353.45
2023-02-26T06:36:05.268Z,52361.89
2023-02-26T06:38:38.571Z,52356.26
2023-02-26T06:41:11.699Z,52347.42
2023-02-26T06:43:44.663Z,52362.69
2023-02-26T06:46:17.670Z,52357.87
2023-02-26T06:48:56.794Z,52367.91
2023-02-26T06:51:31.160Z,52349.83
2023-02-26T06:54:06.179Z,52363.49
2023-02-26T06:56:39.234Z,52375.15
2023-02-26T06:59:12.643Z,52365.10
2023-02-26T07:01:46.585Z,52368.32
2023-02-26T07:04:20.780Z,52379.17
2023-02-26T07:06:54.482Z,52355.05
2023-02-26T07:09:27.357Z,52360.28
2023-02-26T07:12:00.558Z,52373.14
2023-02-26T07:14:35.183Z,52361.49
2023-02-26T07:17:08.910Z,52371.53
2023-02-26T07:19:42.136Z,52372.34
2023-02-26T07:22:15.182Z,52359.48
2023-02-26T07:24:48.135Z,52389.22
2023-02-26T07:27:21.094Z,52382.38
2023-02-26T07:29:57.052Z,52381.98
2023-02-26T07:32:30.343Z,52390.82
2023-02-26T07:35:03.482Z,52365.91
2023-02-26T07:37:36.443Z,52369.12
2023-02-26T07:40:12.233Z,52370.33
2023-02-26T07:42:46.475Z,52367.12
2023-02-26T07:45:22.684Z,52378.77
2023-02-26T07:47:55.507Z,52374.75
2023-02-26T07:50:28.274Z,52375.96
2023-02-26T07:53:01.304Z,52375.55
2023-02-26T07:55:34.504Z,52373.54
2023-02-26T07:58:07.792Z,52358.67
2023-02-26T08:00:40.452Z,52368.72
2023-02-26T08:03:13.795Z,52363.90
2023-02-26T08:05:46.622Z,52354.65
2023-02-26T08:08:23.640Z,52377.16
2023-02-26T08:10:56.950Z,52373.54
2023-02-26T08:13:30.022Z,52361.48
2023-02-26T08:16:03.448Z,52359.88
2023-02-26T08:18:36.479Z,52362.69
2023-02-26T08:21:12.281Z,52361.08
2023-02-26T08:23:45.356Z,52332.95
2023-02-26T08:26:18.199Z,52362.69
2023-02-26T08:28:51.391Z,52373.95
2023-02-26T08:31:24.501Z,52358.68
2023-02-26T08:33:57.996Z,52373.54
2023-02-26T08:36:31.160Z,52369.52
2023-02-26T08:39:03.966Z,52371.13
2023-02-26T08:41:37.063Z,52337.38
2023-02-26T08:44:10.869Z,52347.82
2023-02-26T08:46:44.342Z,52361.09
2023-02-26T08:49:17.113Z,52350.23
2023-02-26T08:51:50.125Z,52347.02
2023-02-26T08:54:25.131Z,52340.19
2023-02-26T08:56:58.080Z,52366.71
2023-02-26T08:59:31.016Z,52354.25
2023-02-26T09:02:04.417Z,52358.68
2023-02-26T09:04:37.219Z,52349.43
2023-02-26T09:07:15.516Z,52345.81
2023-02-26T09:09:51.216Z,52343.40
2023-02-26T09:12:25.051Z,52351.45
2023-02-26T09:14:59.777Z,52355.46
2023-02-26T09:17:32.990Z,52343.80
2023-02-26T09:20:06.814Z,52341.39
2023-02-26T09:22:41.376Z,52358.27
2023-02-26T09:25:15.541Z,52337.77
2023-02-26T09:27:48.404Z,52337.77
2023-02-26T09:30:22.220Z,52349.03
2023-02-26T09:32:55.113Z,52345.01
2023-02-26T09:35:27.792Z,52352.64
2023-02-26T09:38:00.680Z,52349.84
2023-02-26T09:40:39.707Z,52335.76
2023-02-26T09:43:27.200Z,52362.29
2023-02-26T09:46:01.753Z,52327.73
2023-02-26T09:48:34.997Z,52336.57
2023-02-26T09:51:12.697Z,52332.95
2023-02-26T09:53:45.902Z,52334.96
2023-02-26T09:56:20.470Z,52326.52
2023-02-26T09:58:54.304Z,52334.96
2023-02-26T10:01:33.396Z,52343.00
2023-02-26T10:04:10.357Z,52327.73
2023-02-26T10:06:50.056Z,52334.16
2023-02-26T10:09:32.791Z,52349.02
2023-02-26T10:12:06.998Z,52350.23
2023-02-26T10:14:41.723Z,52348.63
2023-02-26T10:17:20.811Z,52329.34
2023-02-26T10:19:55.488Z,52338.98
2023-02-26T10:22:31.999Z,52335.77
2023-02-26T10:25:09.782Z,52331.75
2023-02-26T10:27:49.498Z,52347.42
2023-02-26T10:30:28.107Z,52330.14
2023-02-26T10:33:04.712Z,52331.75
2023-02-26T10:35:44.711Z,52338.18
2023-02-26T10:38:21.366Z,52349.83
2023-02-26T10:41:02.360Z,52344.61
2023-02-26T10:43:39.379Z,52357.07
2023-02-26T10:46:20.567Z,52357.87
2023-02-26T10:49:02.737Z,52351.44
2023-02-26T10:51:37.980Z,52349.02
2023-02-26T10:54:16.840Z,52343.80
2023-02-26T10:56:49.839Z,52343.00
2023-02-26T10:59:26.454Z,52345.81
2023-02-26T11:02:00.026Z,52351.84
2023-02-26T11:04:33.190Z,52344.20
2023-02-26T11:07:07.199Z,52341.79
2023-02-26T11:09:42.476Z,52358.67
2023-02-26T11:12:18.292Z,52338.98
2023-02-26T11:14:51.344Z,52337.77
2023-02-26T11:17:32.606Z,52343.00
2023-02-26T11:20:09.300Z,52350.23
2023-02-26T11:22:42.389Z,52359.07
2023-02-26T11:25:18.659Z,52353.85
2023-02-26T11:28:03.183Z,52343.41
2023-02-26T11:30:39.991Z,52344.20
2023-02-26T11:33:19.994Z,52356.26
2023-02-26T11:35:55.539Z,52345.01
2023-02-26T11:38:30.839Z,52338.18
2023-02-26T11:41:04.487Z,52352.25
2023-02-26T11:43:44.473Z,52357.07
2023-02-26T11:46:17.959Z,52349.03
2023-02-26T11:48:51.211Z,52337.77
2023-02-26T11:51:26.282Z,52340.19
2023-02-26T11:54:01.600Z,52349.03
2023-02-26T11:56:39.456Z,52346.61
2023-02-26T11:59:20.789Z,52342.20
2023-02-26T12:01:54.728Z,52347.02
2023-02-26T12:04:29.006Z,52349.43
2023-02-26T12:07:01.888Z,52344.61
2023-02-26T12:09:36.101Z,52348.63
2023-02-26T12:12:15.621Z,52362.29
2023-02-26T12:15:04.552Z,52343.40
2023-02-26T12:17:50.371Z,52360.28
2023-02-26T12:20:33.299Z,52345.01
2023-02-26T12:23:16.857Z,52345.41
2023-02-26T12:26:05.898Z,52352.24
2023-02-26T12:28:48.665Z,52334.16
2023-02-26T12:31:36.629Z,52357.87
2023-02-26T12:34:27.920Z,52349.83
2023-02-26T12:37:16.547Z,52340.59
2023-02-26T12:39:59.452Z,52349.83
2023-02-26T12:42:51.663Z,52340.19
2023-02-26T12:45:33.733Z,52353.45
2023-02-26T12:48:26.968Z,52347.42
2023-02-26T12:51:03.432Z,52336.17
2023-02-26T12:53:45.708Z,52336.57
2023-02-26T12:56:46.657Z,52347.82
2023-02-26T12:59:37.040Z,52330.54
2023-02-26T13:02:24.931Z,52334.96
2023-02-26T13:05:12.103Z,52323.71
2023-02-26T13:07:56.084Z,52338.18
2023-02-26T13:10:34.196Z,52346.21
2023-02-26T13:13:19.217Z,52336.57
2023-02-26T13:16:10.954Z,52341.39
2023-02-26T13:18:49.102Z,52349.83
2023-02-26T13:21:24.991Z,52346.61
2023-02-26T13:23:59.873Z,52355.05
2023-02-26T13:26:32.913Z,52357.46
2023-02-26T13:29:10.845Z,52356.66
2023-02-26T13:31:45.483Z,52359.48
2023-02-26T13:34:19.934Z,52347.82
2023-02-26T13:36:53.642Z,52347.82
2023-02-26T13:39:43.728Z,52354.65
2023-02-26T13:42:34.332Z,52333.76
2023-02-26T13:45:18.316Z,52339.78
2023-02-26T13:48:03.385Z,52353.45
2023-02-26T13:50:42.896Z,52351.84
2023-02-26T13:53:53.558Z,52360.68
2023-02-26T13:56:48.631Z,52371.54
2023-02-26T13:59:40.206Z,52356.66
2023-02-26T14:02:37.208Z,52347.02
2023-02-26T14:05:28.847Z,52371.93
2023-02-26T14:08:22.718Z,52368.32
2023-02-26T14:11:00.624Z,52360.68
2023-02-26T14:13:40.394Z,52370.73
2023-02-26T14:16:22.139Z,52373.95
2023-02-26T14:18:55.607Z,52364.30
2023-02-26T14:21:51.533Z,52366.31
2023-02-26T14:24:26.196Z,52377.16
2023-02-26T14:27:32.931Z,52372.34
2023-02-26T14:30:18.923Z,52357.47
2023-02-26T14:33:08.260Z,52354.65
2023-02-26T14:35:45.755Z,52360.68
2023-02-26T14:38:20.452Z,52375.15
2023-02-26T14:40:56.303Z,52341.39
2023-02-26T14:43:33.284Z,52342.60
2023-02-26T14:46:06.287Z,52352.24
2023-02-26T14:48:42.901Z,52343.80
2023-02-26T14:51:21.737Z,52371.54
2023-02-26T14:54:08.988Z,52375.15
2023-02-26T14:56:50.686Z,52357.87
2023-02-26T14:59:48.605Z,52359.48
2023-02-26T15:02:27.580Z,52364.29
2023-02-26T15:05:32.923Z,52377.16
2023-02-26T15:08:17.329Z,52349.83
2023-02-26T15:11:00.761Z,52352.64
2023-02-26T15:13:44.055Z,52349.43
2023-02-26T15:16:23.614Z,52381.58
2023-02-26T15:19:06.189Z,52366.31
2023-02-26T15:21:44.836Z,52375.95
2023-02-26T15:24:17.797Z,52367.91
2023-02-26T15:26:53.477Z,52361.89
2023-02-26T15:29:30.480Z,52367.91
2023-02-26T15:32:15.846Z,52366.71
2023-02-26T15:34:50.861Z,52343.80
2023-02-26T15:37:26.564Z,52364.30
2023-02-26T15:40:06.497Z,52353.45
2023-02-26T15:42:41.712Z,52360.28
2023-02-26T15:45:17.512Z,52369.52
2023-02-26T15:47:52.921Z,52349.03
2023-02-26T15:50:26.695Z,52350.64
2023-02-26T15:53:02.610Z,52352.24
2023-02-26T15:55:37.616Z,52330.95
2023-02-26T15:58:11.411Z,52346.21
2023-02-26T16:00:45.368Z,52352.64
2023-02-26T16:03:18.656Z,52368.72
2023-02-26T16:05:51.586Z,52369.12
2023-02-26T16:08:28.064Z,52348.63
2023-02-26T16:11:01.560Z,52357.47
2023-02-26T16:13:37.914Z,52356.26
2023-02-26T16:16:13.168Z,52350.63
2023-02-26T16:18:47.144Z,52375.95
2023-02-26T16:21:30.797Z,52337.37
2023-02-26T16:24:04.967Z,52346.62
2023-02-26T16:26:39.743Z,52350.63
2023-02-26T16:29:20.302Z,52339.78
2023-02-26T16:31:56.184Z,52361.49
2023-02-26T16:34:47.103Z,52362.69
2023-02-26T16:37:28.221Z,52364.30
2023-02-26T16:40:07.047Z,52350.23
2023-02-26T16:42:53.229Z,52360.68
2023-02-26T16:45:49.557Z,52359.48
2023-02-26T16:48:25.529Z,52369.52
2023-02-26T16:51:01.500Z,52372.74
2023-02-26T16:53:37.801Z,52370.33
2023-02-26T16:56:10.901Z,52371.94
2023-02-26T16:58:43.685Z,52360.68
2023-02-26T17:01:20.346Z,52364.30
2023-02-26T17:03:56.873Z,52366.31
2023-02-26T17:06:31.832Z,52371.53
2023-02-26T17:09:04.909Z,52351.84
2023-02-26T17:11:44.589Z,52374.34
2023-02-26T17:14:24.122Z,52390.82
2023-02-26T17:17:01.395Z,52366.31
2023-02-26T17:19:35.384Z,52366.30
2023-02-26T17:22:09.143Z,52361.49
2023-02-26T17:24:45.449Z,52386.80
2023-02-26T17:27:21.754Z,52370.32
2023-02-26T17:29:54.410Z,52369.93
2023-02-26T17:32:29.600Z,52361.09
2023-02-26T17:35:06.503Z,52371.94
2023-02-26T17:37:39.787Z,52373.95
2023-02-26T17:40:21.810Z,52361.09
2023-02-26T17:42:57.351Z,52389.62
2023-02-26T17:45:30.242Z,52387.20
2023-02-26T17:48:03.508Z,52388.81
2023-02-26T17:50:41.884Z,52368.72
2023-02-26T17:53:15.100Z,52387.21
2023-02-26T17:55:48.919Z,52375.15
2023-02-26T17:58:27.693Z,52387.21
2023-02-26T18:01:01.277Z,52382.38
2023-02-26T18:03:34.354Z,52373.14
2023-02-26T18:06:08.267Z,52388.41
2023-02-26T18:08:41.108Z,52397.26
2023-02-26T18:11:15.161Z,52367.52
2023-02-26T18:13:48.374Z,52378.36
2023-02-26T18:16:23.140Z,52386.80
2023-02-26T18:18:56.787Z,52363.90
2023-02-26T18:21:30.119Z,52388.81
2023-02-26T18:24:03.274Z,52392.43
2023-02-26T18:26:36.414Z,52394.44
2023-02-26T18:29:09.147Z,52382.79
2023-02-26T18:31:42.994Z,52370.33
2023-02-26T18:34:17.870Z,52383.59
2023-02-26T18:36:50.829Z,52386.00
2023-02-26T18:39:28.134Z,52386.80
2023-02-26T18:42:01.756Z,52386.40
2023-02-26T18:44:35.074Z,52377.16
2023-02-26T18:47:08.652Z,52376.36
2023-02-26T18:49:41.591Z,52381.18
2023-02-26T18:52:15.102Z,52391.63
2023-02-26T18:54:48.400Z,52377.16
2023-02-26T18:57:21.767Z,52403.28
2023-02-26T18:59:55.069Z,52386.00
2023-02-26T19:02:29.043Z,52374.75
2023-02-26T19:05:02.365Z,52380.38
2023-02-26T19:07:35.918Z,52375.96
2023-02-26T19:10:12.945Z,52368.32
2023-02-26T19:12:50.651Z,52393.23
2023-02-26T19:15:24.630Z,52396.04
2023-02-26T19:17:58.018Z,52385.20
2023-02-26T19:20:31.198Z,52396.45
2023-02-26T19:23:07.046Z,52391.22
2023-02-26T19:25:43.962Z,52391.63
2023-02-26T19:28:18.868Z,52408.51
2023-02-26T19:30:52.022Z,52389.21
2023-02-26T19:33:25.487Z,52399.26
2023-02-26T19:35:59.860Z,52404.89
2023-02-26T19:38:32.951Z,52389.21
2023-02-26T19:41:06.153Z,52382.79
2023-02-26T19:43:39.179Z,52401.27
2023-02-26T19:46:13.559Z,52401.67
2023-02-26T19:48:47.069Z,52397.25
2023-02-26T19:51:20.209Z,52394.84
2023-02-26T19:53:53.365Z,52400.07
2023-02-26T19:56:29.314Z,52420.16
2023-02-26T19:59:03.055Z,52394.84
2023-02-26T20:01:35.953Z,52406.50
2023-02-26T20:04:09.897Z,52388.01
2023-02-26T20:06:42.909Z,52421.77
2023-02-26T20:09:20.606Z,52383.19
2023-02-26T20:11:55.634Z,52410.11
2023-02-26T20:14:34.845Z,52411.72
2023-02-26T20:17:12.717Z,52403.68
2023-02-26T20:19:46.769Z,52397.25
2023-02-26T20:22:23.046Z,52392.84
2023-02-26T20:24:57.111Z,52415.34
2023-02-26T20:27:30.126Z,52399.66
2023-02-26T20:30:03.257Z,52403.28
2023-02-26T20:32:37.550Z,52392.83
2023-02-26T20:35:11.699Z,52401.68
2023-02-26T20:37:45.589Z,52392.84
2023-02-26T20:40:20.636Z,52405.29
2023-02-26T20:42:55.181Z,52409.71
2023-02-26T20:45:28.216Z,52406.49
2023-02-26T20:48:01.220Z,52394.84
2023-02-26T20:50:35.028Z,52413.73
2023-02-26T20:53:09.089Z,52388.81
2023-02-26T20:55:41.923Z,52398.06
2023-02-26T20:58:14.966Z,52403.28
2023-02-26T21:00:48.211Z,52390.42
2023-02-26T21:03:21.350Z,52394.44
2023-02-26T21:05:54.520Z,52382.38
2023-02-26T21:08:28.500Z,52383.59
2023-02-26T21:11:02.365Z,52421.77
2023-02-26T21:13:37.245Z,52409.71
2023-02-26T21:16:10.624Z,52401.67
2023-02-26T21:18:43.776Z,52388.41
2023-02-26T21:21:21.269Z,52402.07
2023-02-26T21:23:54.793Z,52400.47
2023-02-26T21:26:27.896Z,52400.07
2023-02-26T21:29:03.037Z,52408.91
2023-02-26T21:31:41.299Z,52402.88
2023-02-26T21:34:32.628Z,52412.52
2023-02-26T21:37:08.190Z,52400.07
2023-02-26T21:39:41.380Z,52402.88
2023-02-26T21:42:15.709Z,52412.52
2023-02-26T21:44:49.682Z,52402.48
2023-02-26T21:47:23.874Z,52416.95
2023-02-26T21:49:57.320Z,52400.46
2023-02-26T21:52:33.141Z,52409.71
2023-02-26T21:55:06.484Z,52402.48
2023-02-26T21:57:39.549Z,52405.70
2023-02-26T22:00:15.617Z,52407.70
2023-02-26T22:02:48.410Z,52383.59
2023-02-26T22:05:21.126Z,52399.26
2023-02-26T22:07:54.168Z,52420.96
2023-02-26T22:10:29.826Z,52429.00
2023-02-26T22:13:02.906Z,52420.16
2023-02-26T22:15:35.816Z,52424.58
2023-02-26T22:18:10.596Z,52405.69
2023-02-26T22:20:44.943Z,52406.09
2023-02-26T22:23:18.053Z,52402.07
2023-02-26T22:25:51.652Z,52429.41
2023-02-26T22:28:24.801Z,52428.20
2023-02-26T22:30:58.911Z,52429.80
2023-02-26T22:33:32.309Z,52429.01
2023-02-26T22:36:06.164Z,52411.72
2023-02-26T22:38:39.183Z,52421.77
2023-02-26T22:41:12.746Z,52426.59
2023-02-26T22:43:45.724Z,52420.16
2023-02-26T22:46:19.220Z,52397.66
2023-02-26T22:48:52.026Z,52418.96
2023-02-26T22:51:30.074Z,52430.21
2023-02-26T22:54:03.113Z,52431.01
2023-02-26T22:56:36.849Z,52420.56
2023-02-26T22:59:09.991Z,52437.04
2023-02-26T23:01:43.058Z,52430.21
2023-02-26T23:04:16.371Z,52437.84
2023-02-26T23:06:50.060Z,52419.76
2023-02-26T23:09:24.085Z,52439.05
2023-02-26T23:11:57.286Z,52429.80
2023-02-26T23:14:30.327Z,52431.41
2023-02-26T23:17:04.302Z,52425.38
2023-02-26T23:19:37.882Z,52430.61
2023-02-26T23:22:11.474Z,52418.55
2023-02-26T23:24:46.665Z,52421.37
2023-02-26T23:27:24.080Z,52441.86
2023-02-26T23:29:59.298Z,52431.01
2023-02-26T23:32:32.719Z,52431.81
2023-02-26T23:35:05.788Z,52428.60
2023-02-26T23:37:39.634Z,52442.66
2023-02-26T23:40:15.028Z,52427.80
2023-02-26T23:42:48.448Z,52440.66
2023-02-26T23:45:21.260Z,52430.21
2023-02-26T23:47:54.132Z,52426.99
2023-02-26T23:50:26.979Z,52436.24
2023-02-26T23:52:59.678Z,52435.43
2023-02-26T23:55:32.883Z,52428.20
2023-02-26T23:58:05.633Z,52422.57
